Terminal Aerodrome Forecast
Issued by NWS Sterling, VA

Current Version | Previous Version | Graphics & Text | Print | Product List | Glossary On
Versions: 1 2 3 4 5 6 7 8 9 10 11 12 13 14 15 16 17 18 19 20 21 22
000
FTUS41 KLWX 021740
TAFMRB
TAF
KMRB 021740Z 0218/0318 VRB04KT P6SM OVC070
     FM030600 32004KT 3SM BR SCT050 BKN080
     FM030900 02004KT 3SM BR SCT008 BKN025
     FM031300 03005KT P6SM SCT015 BKN025=

USA.gov is the U.S. government's official web portal to all federal, state and local government web resources and services.